Time;durP1;ratioP1;P1;durP2;ratioP2;P2;SDS_P1;SDS_P2;PMS_P1;PMS_P2;Temp;Humidity;BMP_temperature;BMP_pressure;BME280_temperature;BME280_humidity;BME280_pressure;Samples;Min_cycle;Max_cycle;Signal;HPM_P1;HPM_P2
2022/12/30 00:00:21;;;;;;;;;10.00;9.00;;;;;9.94;66.36;100527.69;5049336;28;45533;-58
2022/12/30 00:02:46;;;;;;;;;10.00;9.33;;;;;9.98;66.03;100535.47;5041437;28;45451;-56
2022/12/30 00:05:11;;;;;;;;;8.00;5.33;;;;;9.92;65.42;100519.00;5048812;28;45479;-59
2022/12/30 00:07:37;;;;;;;;;11.67;8.67;;;;;9.99;65.96;100524.03;5050850;28;45535;-58
2022/12/30 00:10:03;;;;;;;;;5.00;5.00;;;;;9.95;66.05;100515.41;5054667;28;45454;-59
2022/12/30 00:35:00;;;;;;;;;6.67;6.67;;;;;9.68;65.85;100477.81;5054023;28;45575;-56
2022/12/30 00:37:26;;;;;;;;;6.33;4.67;;;;;9.75;66.87;100492.44;5052082;28;45569;-57
2022/12/30 00:39:52;;;;;;;;;8.00;7.67;;;;;9.73;66.69;100494.28;5040816;28;46313;-58
2022/12/30 00:45:01;;;;;;;;;7.67;4.67;;;;;9.70;66.46;100495.22;5054045;28;45547;-56
2022/12/30 00:47:27;;;;;;;;;7.00;4.67;;;;;9.74;66.10;100501.22;5053722;28;45703;-57
2022/12/30 00:58:04;;;;;;;;;8.00;7.00;;;;;9.54;66.65;100496.66;5053908;28;45438;-58
2022/12/30 01:00:29;;;;;;;;;10.67;8.00;;;;;9.54;66.64;100490.50;5045537;28;46321;-58
2022/12/30 01:02:54;;;;;;;;;4.00;4.00;;;;;9.49;66.68;100480.19;5047425;28;45528;-58
2022/12/30 01:05:20;;;;;;;;;7.33;7.00;;;;;9.57;66.61;100487.81;5049024;28;45551;-57
2022/12/30 01:07:45;;;;;;;;;8.00;6.00;;;;;9.54;66.69;100478.28;5051126;28;45628;-57
2022/12/30 01:10:11;;;;;;;;;5.67;5.67;;;;;9.54;66.07;100480.00;5042118;28;45499;-58
2022/12/30 01:12:37;;;;;;;;;8.00;7.00;;;;;9.44;66.35;100475.06;5049197;28;45447;-57
2022/12/30 01:15:02;;;;;;;;;8.00;7.67;;;;;9.45;66.60;100478.56;5041839;28;45656;-58
2022/12/30 01:17:31;;;;;;;;;4.33;4.33;;;;;9.43;66.74;100469.88;5047765;28;45595;-58
2022/12/30 01:19:57;;;;;;;;;6.33;5.00;;;;;9.37;66.80;100463.06;5051713;28;45536;-57
2022/12/30 01:22:23;;;;;;;;;3.67;3.67;;;;;9.38;67.19;100470.03;5057267;28;45539;-58
2022/12/30 01:24:49;;;;;;;;;4.67;4.67;;;;;9.39;66.95;100463.00;5057002;28;45564;-58
2022/12/30 01:27:15;;;;;;;;;7.67;7.67;;;;;9.39;66.89;100463.88;5056939;28;45615;-56
2022/12/30 01:29:42;;;;;;;;;5.00;5.00;;;;;9.36;67.08;100463.13;5056114;28;46291;-58
2022/12/30 01:32:10;;;;;;;;;7.33;6.67;;;;;9.37;67.15;100454.31;5055170;28;45509;-56
2022/12/30 01:34:36;;;;;;;;;5.00;5.00;;;;;9.35;67.20;100461.38;5056831;28;45528;-58
2022/12/30 01:37:01;;;;;;;;;5.00;5.00;;;;;9.34;67.09;100457.91;5056858;28;45653;-56
2022/12/30 01:39:26;;;;;;;;;8.67;7.00;;;;;9.28;67.10;100456.34;5047291;28;46198;-58
2022/12/30 01:41:53;;;;;;;;;8.00;5.00;;;;;9.29;67.29;100457.19;5051851;28;45485;-56
2022/12/30 01:44:43;;;;;;;;;8.00;5.67;;;;;9.29;67.09;100467.69;5056947;28;45497;-58
2022/12/30 01:47:10;;;;;;;;;5.00;5.00;;;;;9.29;66.84;100462.44;5055694;28;45575;-58
2022/12/30 01:49:40;;;;;;;;;8.33;7.00;;;;;9.32;67.15;100464.97;5056500;28;46636;-58
2022/12/30 01:52:06;;;;;;;;;5.00;4.00;;;;;9.37;67.22;100463.06;5055920;28;45528;-56
2022/12/30 01:54:35;;;;;;;;;9.00;6.67;;;;;9.36;66.72;100455.25;5056657;28;45618;-55
2022/12/30 01:57:02;;;;;;;;;7.00;4.67;;;;;9.33;67.13;100448.31;5056554;28;45611;-54
2022/12/30 01:59:27;;;;;;;;;9.00;7.00;;;;;9.33;67.81;100450.94;5056222;28;46197;-56
2022/12/30 02:01:53;;;;;;;;;9.00;5.00;;;;;9.31;67.02;100444.88;5052517;28;45593;-54
2022/12/30 02:04:24;;;;;;;;;8.67;7.67;;;;;9.27;67.06;100440.66;5043629;28;45336;-56
2022/12/30 02:06:52;;;;;;;;;9.00;9.00;;;;;9.20;67.20;100457.50;5052346;28;45557;-55
2022/12/30 02:09:19;;;;;;;;;7.00;7.00;;;;;9.15;67.45;100454.16;5049895;28;46361;-58
2022/12/30 02:11:44;;;;;;;;;6.33;5.00;;;;;9.16;67.50;100459.38;5051887;28;45480;-55
2022/12/30 02:14:10;;;;;;;;;5.67;5.67;;;;;9.20;67.37;100462.75;5048490;28;45970;-54
2022/12/30 02:17:02;;;;;;;;;5.67;5.67;;;;;9.20;67.59;100468.00;5056749;28;45533;-56
2022/12/30 02:20:05;;;;;;;;;7.00;6.33;;;;;9.19;67.91;100461.03;5049375;28;46690;-56
2022/12/30 02:22:37;;;;;;;;;10.33;5.33;;;;;9.12;67.39;100457.75;5054958;28;45603;-56
2022/12/30 02:25:25;;;;;;;;;5.00;5.00;;;;;9.09;68.38;100455.22;5053299;28;45538;-56
2022/12/30 02:27:51;;;;;;;;;5.00;5.00;;;;;9.12;68.47;100449.00;5054376;28;45476;-56
2022/12/30 02:30:33;;;;;;;;;8.00;7.00;;;;;9.09;68.18;100447.34;5051425;28;46249;-55
2022/12/30 02:32:58;;;;;;;;;6.33;6.33;;;;;9.09;68.26;100449.13;5044127;28;45480;-56
2022/12/30 02:35:39;;;;;;;;;9.00;7.00;;;;;8.97;68.86;100435.50;5054485;28;45590;-59
2022/12/30 02:38:33;;;;;;;;;11.33;9.00;;;;;9.06;68.75;100440.44;5051586;28;45509;-55
2022/12/30 02:46:47;;;;;;;;;7.67;7.67;;;;;9.01;69.36;100421.34;5055912;28;45480;-56
2022/12/30 02:49:15;;;;;;;;;9.00;7.33;;;;;9.06;69.13;100419.44;5047291;28;45569;-58
2022/12/30 02:54:30;;;;;;;;;10.33;10.00;;;;;9.15;69.27;100427.94;5054105;28;45493;-57
2022/12/30 02:56:55;;;;;;;;;10.00;8.00;;;;;9.16;69.41;100427.00;5051614;28;45639;-57
2022/12/30 03:05:24;;;;;;;;;11.67;9.67;;;;;9.14;70.16;100415.72;5042511;28;45549;-59
2022/12/30 03:08:04;;;;;;;;;8.00;8.00;;;;;9.12;69.95;100404.41;5045795;28;45713;-58
2022/12/30 03:13:57;;;;;;;;;14.33;13.33;;;;;9.04;70.63;100397.66;5044154;28;45843;-57
2022/12/30 03:16:37;;;;;;;;;14.33;9.67;;;;;9.04;70.93;100408.13;5055160;28;45503;-58
2022/12/30 03:19:08;;;;;;;;;7.67;7.67;;;;;9.10;70.89;100398.34;5055395;28;45568;-58
2022/12/30 03:21:38;;;;;;;;;11.00;8.67;;;;;9.13;70.52;100393.00;5055181;28;45604;-58
2022/12/30 03:27:05;;;;;;;;;12.33;12.33;;;;;9.15;70.69;100386.78;5055202;28;45397;-56
2022/12/30 03:29:50;;;;;;;;;8.00;8.00;;;;;9.17;70.87;100389.38;5054221;28;45454;-56
2022/12/30 03:32:18;;;;;;;;;11.33;10.00;;;;;9.14;71.31;100373.75;5055233;28;45506;-57
2022/12/30 03:34:45;;;;;;;;;13.00;10.33;;;;;9.12;71.39;100383.44;5054766;28;46487;-58
2022/12/30 03:37:32;;;;;;;;;9.33;9.33;;;;;9.11;71.34;100385.19;5054851;28;45430;-57
2022/12/30 03:40:16;;;;;;;;;9.33;9.33;;;;;9.15;71.48;100391.19;5051547;28;45472;-58
2022/12/30 03:42:43;;;;;;;;;10.33;8.00;;;;;9.14;71.20;100385.09;5045740;28;45542;-58
2022/12/30 03:45:09;;;;;;;;;10.33;10.00;;;;;9.20;71.25;100382.25;5053819;28;45483;-57
2022/12/30 03:47:34;;;;;;;;;5.00;5.00;;;;;9.16;71.71;100371.91;5054676;28;45425;-56
2022/12/30 03:50:00;;;;;;;;;8.33;8.00;;;;;9.14;71.07;100366.72;5054745;28;45422;-56
2022/12/30 03:52:25;;;;;;;;;9.00;7.00;;;;;9.13;71.32;100366.78;5054927;28;45395;-58
2022/12/30 03:54:51;;;;;;;;;8.00;7.00;;;;;9.11;71.65;100365.94;5054516;28;46450;-58
2022/12/30 03:57:17;;;;;;;;;5.00;5.00;;;;;9.10;71.47;100356.38;5054504;28;45465;-57
2022/12/30 03:59:43;;;;;;;;;8.00;7.33;;;;;9.03;71.77;100348.72;5054620;28;45521;-57
2022/12/30 04:02:09;;;;;;;;;9.33;8.00;;;;;9.06;71.44;100347.75;5051247;28;45645;-58
2022/12/30 04:04:34;;;;;;;;;7.33;5.00;;;;;9.07;71.87;100352.09;5054423;28;45512;-58
2022/12/30 04:07:00;;;;;;;;;8.67;8.00;;;;;9.08;71.56;100343.34;5052837;28;45557;-57
2022/12/30 04:09:25;;;;;;;;;5.67;5.67;;;;;9.15;71.71;100349.22;5043179;28;45535;-58
2022/12/30 04:11:51;;;;;;;;;7.33;6.33;;;;;9.14;71.39;100334.41;5040564;28;45662;-59
2022/12/30 04:14:16;;;;;;;;;7.00;5.00;;;;;9.06;71.50;100324.16;5040711;28;46328;-58
2022/12/30 04:16:41;;;;;;;;;7.00;7.00;;;;;9.09;71.70;100339.78;5049799;28;45561;-56
2022/12/30 04:19:07;;;;;;;;;7.33;7.00;;;;;9.09;71.68;100328.44;5054998;28;45490;-58
2022/12/30 04:21:32;;;;;;;;;6.33;5.00;;;;;9.10;71.83;100314.41;5054860;28;45656;-58
2022/12/30 04:23:57;;;;;;;;;5.33;4.00;;;;;9.03;72.02;100313.78;5054222;28;45485;-58
2022/12/30 04:26:23;;;;;;;;;8.67;8.67;;;;;9.09;72.08;100324.03;5053061;28;45474;-57
2022/12/30 04:28:48;;;;;;;;;9.00;7.00;;;;;9.09;72.12;100318.81;5054481;28;45426;-58
2022/12/30 04:31:13;;;;;;;;;10.67;9.00;;;;;9.05;72.18;100314.56;5041885;28;45505;-57
2022/12/30 04:33:39;;;;;;;;;7.00;7.00;;;;;9.09;72.41;100318.81;5054124;28;46390;-55
2022/12/30 04:36:05;;;;;;;;;8.33;8.33;;;;;9.01;72.46;100305.09;5054181;28;45952;-57
2022/12/30 04:38:30;;;;;;;;;10.00;8.00;;;;;9.05;72.50;100319.78;5053214;28;45505;-57
2022/12/30 04:40:56;;;;;;;;;8.67;7.33;;;;;8.95;73.05;100310.53;5043187;28;45514;-57
2022/12/30 04:43:21;;;;;;;;;8.00;7.00;;;;;8.87;73.01;100295.06;5054056;28;46096;-55
2022/12/30 04:45:46;;;;;;;;;7.00;6.67;;;;;8.84;73.15;100282.91;5054144;28;45549;-58
2022/12/30 04:48:12;;;;;;;;;8.00;7.67;;;;;8.90;73.64;100296.72;5051897;28;45442;-57
2022/12/30 04:50:42;;;;;;;;;7.00;7.00;;;;;8.90;73.48;100296.72;5044914;28;45574;-59
2022/12/30 04:53:07;;;;;;;;;10.00;8.67;;;;;8.84;73.77;100288.16;5049251;28;46457;-58
2022/12/30 04:55:32;;;;;;;;;9.00;7.33;;;;;8.81;73.89;100279.50;5052989;28;45563;-58
2022/12/30 04:57:58;;;;;;;;;9.33;8.00;;;;;8.89;73.66;100279.25;5054001;28;46005;-58
2022/12/30 05:00:23;;;;;;;;;8.00;8.00;;;;;8.88;73.92;100273.16;5053990;28;45497;-58
2022/12/30 05:02:48;;;;;;;;;6.67;5.67;;;;;8.90;74.19;100260.84;5054140;28;46048;-59
2022/12/30 05:05:14;;;;;;;;;6.67;6.67;;;;;8.87;74.54;100267.97;5053923;28;45514;-58
2022/12/30 05:07:39;;;;;;;;;7.00;5.00;;;;;8.89;74.27;100264.38;5054009;28;45386;-58
2022/12/30 05:10:05;;;;;;;;;4.67;4.67;;;;;8.88;74.36;100265.28;5050023;28;45522;-62
2022/12/30 05:12:30;;;;;;;;;5.67;5.67;;;;;8.97;74.51;100258.88;5053429;28;45420;-58
2022/12/30 05:14:56;;;;;;;;;5.67;5.67;;;;;8.96;74.19;100238.81;5038399;28;45501;-58
2022/12/30 05:17:21;;;;;;;;;3.67;3.67;;;;;8.97;74.55;100230.91;5050094;28;45758;-58
2022/12/30 05:19:46;;;;;;;;;4.00;4.00;;;;;9.02;74.46;100223.69;5053853;28;45532;-58
2022/12/30 05:22:12;;;;;;;;;4.00;4.00;;;;;9.02;74.44;100215.84;5052472;28;45509;-57
2022/12/30 05:27:21;;;;;;;;;8.33;7.33;;;;;9.04;74.70;100213.16;5053353;28;45571;-57
2022/12/30 05:29:46;;;;;;;;;4.67;4.67;;;;;9.04;74.73;100206.16;5052522;28;45487;-56
2022/12/30 05:32:12;;;;;;;;;3.33;3.33;;;;;9.00;74.59;100211.56;5054106;28;45483;-55
2022/12/30 05:34:37;;;;;;;;;2.33;2.33;;;;;9.02;74.58;100222.84;5054058;28;45428;-54
2022/12/30 05:37:02;;;;;;;;;3.00;3.00;;;;;9.04;74.73;100207.91;5050124;28;45525;-56
2022/12/30 05:39:28;;;;;;;;;3.33;3.33;;;;;9.15;74.38;100210.16;5049966;28;45738;-54
2022/12/30 05:41:53;;;;;;;;;6.00;3.33;;;;;9.15;74.29;100203.16;5051657;28;46448;-56
2022/12/30 05:44:18;;;;;;;;;2.67;2.67;;;;;9.09;74.68;100192.03;5053534;28;45507;-56
2022/12/30 05:46:44;;;;;;;;;7.67;3.00;;;;;9.14;74.38;100193.56;5053541;28;45601;-54
2022/12/30 05:49:11;;;;;;;;;5.00;3.00;;;;;9.11;74.56;100185.81;5053905;28;45615;-55
2022/12/30 05:51:36;;;;;;;;;1.00;1.00;;;;;9.14;74.74;100177.84;5053489;28;46514;-56
2022/12/30 05:54:01;;;;;;;;;2.67;2.33;;;;;9.18;73.93;100166.31;5048203;28;45450;-55
2022/12/30 05:56:27;;;;;;;;;3.00;2.33;;;;;9.22;74.71;100160.03;5053164;28;45406;-56
2022/12/30 05:58:52;;;;;;;;;2.00;2.00;;;;;9.26;74.75;100158.16;5053666;28;45481;-57
2022/12/30 06:01:17;;;;;;;;;5.33;2.00;;;;;9.27;74.45;100137.13;5051932;28;45718;-56
2022/12/30 06:03:43;;;;;;;;;4.00;4.00;;;;;9.24;74.71;100136.34;5053748;28;45512;-56
2022/12/30 06:06:09;;;;;;;;;3.00;2.00;;;;;9.29;74.66;100139.66;5055048;28;45744;-54
2022/12/30 06:08:35;;;;;;;;;2.00;2.00;;;;;9.31;74.89;100127.34;5057183;28;45620;-56
2022/12/30 06:11:01;;;;;;;;;2.33;2.33;;;;;9.29;74.90;100118.66;5057202;28;46171;-57
2022/12/30 06:13:27;;;;;;;;;3.67;2.67;;;;;9.34;75.12;100129.84;5056798;28;45520;-56
2022/12/30 06:15:52;;;;;;;;;3.33;3.00;;;;;9.35;74.40;100118.47;5041519;28;45842;-57
2022/12/30 06:18:18;;;;;;;;;8.33;4.33;;;;;9.34;74.99;100108.00;5056954;28;45659;-54
2022/12/30 06:20:45;;;;;;;;;4.00;3.00;;;;;9.35;74.92;100114.97;5055116;28;47011;-55
2022/12/30 06:23:10;;;;;;;;;2.67;2.67;;;;;9.34;74.94;100100.97;5056631;28;46027;-56
2022/12/30 06:25:36;;;;;;;;;4.33;3.00;;;;;9.34;74.94;100090.50;5041103;28;45491;-56
2022/12/30 06:28:01;;;;;;;;;5.00;3.00;;;;;9.37;75.00;100086.88;5047862;28;45447;-56
2022/12/30 06:30:27;;;;;;;;;5.00;4.00;;;;;9.37;75.01;100093.00;5056293;28;45552;-56
2022/12/30 06:32:56;;;;;;;;;2.00;1.00;;;;;9.35;75.09;100092.22;5056535;28;45557;-56
2022/12/30 06:35:22;;;;;;;;;2.00;2.00;;;;;9.38;75.10;100081.59;5056979;28;45390;-57
2022/12/30 06:37:48;;;;;;;;;2.33;2.33;;;;;9.40;75.14;100066.66;5044240;28;45474;-57
2022/12/30 06:40:13;;;;;;;;;3.33;3.33;;;;;9.44;75.02;100051.63;5056358;28;45463;-56
2022/12/30 06:42:39;;;;;;;;;4.00;3.00;;;;;9.27;74.91;100037.41;5056413;28;45562;-56
2022/12/30 06:45:05;;;;;;;;;4.33;3.00;;;;;9.45;74.73;100043.69;5056599;28;45480;-55
2022/12/30 06:47:31;;;;;;;;;3.67;1.67;;;;;9.45;75.18;100046.31;5056574;28;45472;-56
2022/12/30 06:49:57;;;;;;;;;3.00;1.67;;;;;9.40;75.02;100031.66;5055919;28;45473;-56
2022/12/30 06:52:23;;;;;;;;;3.00;3.00;;;;;9.47;74.96;100038.38;5054106;28;45398;-57
2022/12/30 06:54:48;;;;;;;;;5.00;3.67;;;;;9.47;74.93;100039.22;5053807;28;45516;-56
2022/12/30 06:57:14;;;;;;;;;2.00;2.00;;;;;9.46;74.61;100021.78;5056069;28;45459;-55
2022/12/30 06:59:39;;;;;;;;;3.00;3.00;;;;;9.51;74.85;100019.84;5053729;28;47031;-56
2022/12/30 07:02:05;;;;;;;;;4.00;4.00;;;;;9.46;74.86;100010.44;5055599;28;45588;-56
2022/12/30 07:04:30;;;;;;;;;3.00;3.00;;;;;9.50;74.42;100020.72;5047072;28;45371;-57
2022/12/30 07:06:55;;;;;;;;;4.00;2.00;;;;;9.56;74.49;100000.41;5052427;28;45495;-56
2022/12/30 07:09:21;;;;;;;;;4.00;2.33;;;;;9.58;74.58;100001.19;5055952;28;46086;-55
2022/12/30 07:11:46;;;;;;;;;3.67;3.00;;;;;9.63;74.24;100002.72;5056116;28;45493;-56
2022/12/30 07:14:11;;;;;;;;;1.00;1.00;;;;;9.66;74.28;99985.97;5051823;28;45552;-57
2022/12/30 07:16:37;;;;;;;;;2.00;2.00;;;;;9.63;74.10;99973.00;5043660;28;45845;-57
2022/12/30 07:19:02;;;;;;;;;1.00;1.00;;;;;9.66;74.26;99983.34;5051878;28;46307;-56
2022/12/30 07:21:28;;;;;;;;;4.00;3.00;;;;;9.66;74.20;99968.44;5055672;28;45497;-55
2022/12/30 07:23:53;;;;;;;;;1.00;1.00;;;;;9.68;74.25;99974.50;5043850;28;45489;-56
2022/12/30 07:26:19;;;;;;;;;2.00;2.00;;;;;9.67;73.70;99964.06;5048194;28;45532;-57
2022/12/30 07:28:44;;;;;;;;;2.67;2.67;;;;;9.72;74.45;99962.97;5055335;28;46629;-56
2022/12/30 07:31:09;;;;;;;;;2.00;2.00;;;;;9.74;73.81;99955.84;5055512;28;45394;-56
2022/12/30 07:33:35;;;;;;;;;0.00;0.00;;;;;9.77;73.66;99956.66;5055458;28;45502;-58
2022/12/30 07:36:00;;;;;;;;;4.00;3.00;;;;;9.79;73.84;99954.81;5055517;28;45503;-58
2022/12/30 07:38:25;;;;;;;;;3.67;2.00;;;;;9.77;73.35;99935.66;5055164;28;46492;-56
2022/12/30 07:40:51;;;;;;;;;1.00;1.00;;;;;9.81;73.31;99945.97;5053652;28;45593;-57
2022/12/30 07:43:16;;;;;;;;;1.00;1.00;;;;;9.82;73.28;99942.41;5055317;28;45462;-57
2022/12/30 07:45:42;;;;;;;;;2.00;2.00;;;;;9.86;73.28;99937.84;5045955;28;45579;-57
2022/12/30 07:48:07;;;;;;;;;2.00;2.00;;;;;9.87;73.24;99926.47;5052347;28;45454;-57
2022/12/30 07:50:33;;;;;;;;;2.00;2.00;;;;;9.77;73.17;99923.34;5051083;28;45645;-57
2022/12/30 07:52:59;;;;;;;;;2.00;1.67;;;;;9.86;72.71;99927.34;5047445;28;45515;-57
2022/12/30 07:55:24;;;;;;;;;3.00;2.00;;;;;9.86;72.85;99937.84;5053187;28;45493;-57
2022/12/30 07:57:49;;;;;;;;;2.00;2.00;;;;;9.91;72.71;99949.03;5052438;28;45671;-57
2022/12/30 08:00:16;;;;;;;;;2.00;2.00;;;;;9.89;72.11;99932.50;5054565;28;45492;-57
2022/12/30 08:02:41;;;;;;;;;4.67;2.33;;;;;9.92;72.03;99932.38;5050600;28;45479;-57
2022/12/30 08:05:08;;;;;;;;;3.33;3.00;;;;;9.91;72.48;99939.41;5046531;28;45486;-56
2022/12/30 08:07:34;;;;;;;;;2.00;2.00;;;;;9.92;72.38;99929.75;5054468;28;46357;-54
2022/12/30 08:09:59;;;;;;;;;2.33;1.00;;;;;9.90;71.91;99929.78;5054295;28;45541;-57
2022/12/30 08:12:25;;;;;;;;;1.67;0.00;;;;;9.91;71.39;99910.50;5054555;28;45467;-57
2022/12/30 08:14:50;;;;;;;;;2.00;2.00;;;;;9.91;71.87;99904.38;5042886;28;45485;-57
2022/12/30 08:17:15;;;;;;;;;1.00;1.00;;;;;9.93;71.79;99905.16;5041154;28;46683;-54
2022/12/30 08:19:40;;;;;;;;;2.00;2.00;;;;;9.96;71.91;99905.03;5046725;28;45498;-56
2022/12/30 08:22:06;;;;;;;;;2.00;1.00;;;;;9.91;71.38;99896.50;5054598;28;45523;-54
2022/12/30 08:24:31;;;;;;;;;2.33;2.33;;;;;9.88;71.68;99886.97;5052862;28;45472;-57
2022/12/30 08:26:56;;;;;;;;;2.67;1.33;;;;;9.93;72.13;99886.78;5046981;28;45497;-66
2022/12/30 08:29:22;;;;;;;;;1.00;1.00;;;;;9.92;72.62;99890.34;5033364;28;45748;-67
2022/12/30 08:31:49;;;;;;;;;2.00;1.00;;;;;9.95;72.65;99898.09;5038898;28;45458;-68
2022/12/30 08:34:17;;;;;;;;;2.00;2.00;;;;;9.86;72.55;99885.34;5045155;28;45541;-65
2022/12/30 08:36:42;;;;;;;;;1.00;1.00;;;;;9.94;72.31;99883.25;5033902;28;45490;-66
2022/12/30 08:39:08;;;;;;;;;1.00;1.00;;;;;9.92;72.76;99872.81;5034128;28;45469;-66
2022/12/30 08:41:35;;;;;;;;;0.00;0.00;;;;;9.88;72.95;99876.47;5033875;28;45653;-62
2022/12/30 08:44:03;;;;;;;;;1.00;1.00;;;;;9.91;73.62;99872.84;5037891;28;45574;-65
2022/12/30 08:46:30;;;;;;;;;1.33;1.33;;;;;9.85;73.34;99852.97;5057480;28;47937;-65
2022/12/30 08:48:56;;;;;;;;;4.67;3.00;;;;;9.82;73.81;99853.13;5033457;28;45952;-67
2022/12/30 08:51:21;;;;;;;;;1.33;1.33;;;;;9.84;73.98;99847.81;5033045;28;45455;-70
2022/12/30 08:53:47;;;;;;;;;2.33;2.00;;;;;9.79;73.61;99839.28;5035899;28;45711;-65
2022/12/30 08:56:21;;;;;;;;;3.33;2.33;;;;;9.76;73.76;99839.41;5049362;28;46911;-65
2022/12/30 08:58:47;;;;;;;;;1.00;1.00;;;;;9.83;74.07;99832.94;5033753;28;45553;-64
2022/12/30 09:01:15;;;;;;;;;1.33;1.33;;;;;9.72;74.37;99802.78;5033190;28;45459;-64
2022/12/30 09:03:41;;;;;;;;;2.00;2.00;;;;;9.64;74.49;99789.13;5041454;28;45503;-69
2022/12/30 09:06:08;;;;;;;;;0.67;0.67;;;;;9.78;74.94;99809.53;5036130;28;45517;-67
2022/12/30 09:08:35;;;;;;;;;2.00;1.00;;;;;9.78;74.86;99817.41;5033467;28;45569;-59
2022/12/30 09:11:04;;;;;;;;;2.00;2.00;;;;;9.74;74.67;99793.06;5035792;28;45513;-66
2022/12/30 09:13:30;;;;;;;;;2.33;2.33;;;;;9.76;75.21;99785.13;5033156;28;45577;-64
2022/12/30 09:15:56;;;;;;;;;5.00;5.00;;;;;9.76;75.43;99760.63;5037554;28;45549;-64
2022/12/30 09:18:22;;;;;;;;;2.00;1.00;;;;;9.72;75.28;99762.53;5053991;28;45506;-65
2022/12/30 09:20:47;;;;;;;;;3.00;3.00;;;;;9.67;75.52;99744.38;5039227;28;45505;-63
2022/12/30 09:23:13;;;;;;;;;3.00;3.00;;;;;9.71;75.75;99756.44;5053690;28;45430;-66
2022/12/30 09:25:38;;;;;;;;;1.33;1.00;;;;;9.65;76.24;99748.84;5042350;28;48611;-65
2022/12/30 09:28:04;;;;;;;;;3.00;1.33;;;;;9.70;75.98;99752.13;5040806;28;45476;-68
2022/12/30 09:30:30;;;;;;;;;1.33;1.33;;;;;9.71;76.11;99773.97;5041063;28;45509;-67
2022/12/30 09:32:55;;;;;;;;;2.00;1.00;;;;;9.71;76.04;99755.59;5050801;28;45397;-65
2022/12/30 09:35:20;;;;;;;;;1.67;1.67;;;;;9.68;76.09;99764.44;5051893;28;46216;-63
2022/12/30 09:37:46;;;;;;;;;2.00;2.00;;;;;9.76;76.47;99766.75;5052891;28;45558;-65
2022/12/30 09:40:19;;;;;;;;;2.33;2.00;;;;;9.74;76.35;99750.19;5053847;28;45513;-64
2022/12/30 09:45:50;;;;;;;;;2.00;1.00;;;;;9.67;76.79;99741.75;5057234;28;45814;-66
2022/12/30 09:48:24;;;;;;;;;0.33;0.33;;;;;9.72;76.47;99734.53;5055310;28;45555;-63
2022/12/30 09:51:03;;;;;;;;;18.33;15.00;;;;;9.78;77.25;99735.13;5055578;28;45438;-64
2022/12/30 09:53:31;;;;;;;;;3.33;1.67;;;;;9.77;76.82;99730.81;5055210;28;45497;-66
2022/12/30 09:56:02;;;;;;;;;1.00;1.00;;;;;9.78;77.27;99728.13;5052141;28;48552;-68
2022/12/30 09:58:33;;;;;;;;;2.67;2.67;;;;;9.77;77.17;99722.94;5056038;28;45364;-67
2022/12/30 10:01:22;;;;;;;;;1.67;1.67;;;;;9.72;77.47;99726.66;5052515;28;45465;-70
2022/12/30 10:03:47;;;;;;;;;1.00;1.00;;;;;9.76;77.84;99705.50;5042278;28;45622;-66
2022/12/30 10:06:27;;;;;;;;;1.00;1.00;;;;;9.80;78.35;99707.03;5056936;28;45402;-66
2022/12/30 10:09:23;;;;;;;;;1.00;1.00;;;;;9.86;78.11;99702.38;5055036;27;46513;-56
2022/12/30 10:12:03;;;;;;;;;1.33;1.33;;;;;9.91;78.23;99684.63;5053704;28;45513;-65
2022/12/30 10:14:47;;;;;;;;;2.00;2.00;;;;;9.89;78.31;99683.00;5050065;28;45571;-68
2022/12/30 10:17:27;;;;;;;;;1.00;1.00;;;;;9.88;78.66;99671.63;5050625;28;46633;-62
2022/12/30 10:20:10;;;;;;;;;1.00;1.00;;;;;9.89;79.28;99659.34;5056203;28;45416;-62
2022/12/30 10:22:45;;;;;;;;;1.33;1.33;;;;;9.87;79.43;99645.44;5056618;28;45594;-66
2022/12/30 10:25:16;;;;;;;;;1.00;1.00;;;;;9.93;79.17;99639.88;5054537;27;45621;-63
2022/12/30 10:27:49;;;;;;;;;1.67;1.67;;;;;9.90;79.67;99622.50;5049325;28;46209;-64
2022/12/30 10:30:21;;;;;;;;;1.00;1.00;;;;;9.98;79.47;99652.81;5047701;28;45533;-68
2022/12/30 10:33:01;;;;;;;;;2.33;1.67;;;;;10.01;79.21;99621.97;5053357;28;45551;-68
2022/12/30 10:35:30;;;;;;;;;1.00;1.00;;;;;10.04;79.89;99626.22;5056418;28;45473;-56
2022/12/30 10:38:11;;;;;;;;;2.00;2.00;;;;;10.07;79.60;99620.81;5054569;28;46441;-55
2022/12/30 10:40:46;;;;;;;;;1.00;1.00;;;;;10.10;79.90;99618.03;5056391;28;45703;-65
2022/12/30 10:43:39;;;;;;;;;1.00;1.00;;;;;10.12;80.33;99613.56;5056344;28;45528;-66
2022/12/30 10:46:35;;;;;;;;;2.00;0.33;;;;;10.19;80.23;99620.22;5048823;28;45486;-65
2022/12/30 10:49:22;;;;;;;;;0.00;0.00;;;;;10.22;79.51;99622.72;5054638;28;48384;-65
2022/12/30 10:51:49;;;;;;;;;1.00;1.00;;;;;10.28;79.83;99595.31;5052620;28;46218;-64
2022/12/30 10:54:15;;;;;;;;;1.00;1.00;;;;;10.30;80.78;99581.16;5046605;28;45437;-65
2022/12/30 10:56:42;;;;;;;;;0.00;0.00;;;;;10.35;81.01;99600.19;5039873;28;45482;-65
2022/12/30 10:59:17;;;;;;;;;1.33;1.33;;;;;10.34;80.60;99566.94;5055739;28;45522;-67
2022/12/30 11:01:45;;;;;;;;;1.00;1.00;;;;;10.40;80.29;99571.03;5055497;28;45842;-67
2022/12/30 11:04:46;;;;;;;;;1.00;1.00;;;;;10.44;81.36;99575.19;5056041;28;45506;-65
2022/12/30 11:07:15;;;;;;;;;0.67;0.67;;;;;10.48;80.81;99560.97;5033312;28;45671;-66
2022/12/30 11:09:41;;;;;;;;;2.00;1.00;;;;;10.50;81.09;99540.69;5043250;28;47505;-66
2022/12/30 11:15:11;;;;;;;;;0.00;0.00;;;;;10.56;81.72;99569.31;5042751;28;45578;-64
2022/12/30 11:17:56;;;;;;;;;1.00;1.00;;;;;10.58;81.77;99561.34;5053876;28;45584;-64
2022/12/30 11:20:32;;;;;;;;;0.00;0.00;;;;;10.63;81.51;99551.44;5048171;28;45419;-65
2022/12/30 11:23:02;;;;;;;;;1.00;1.00;;;;;10.65;81.08;99530.31;5038832;28;45509;-66
2022/12/30 11:25:30;;;;;;;;;0.00;0.00;;;;;10.67;81.04;99557.41;5054498;28;45507;-64
2022/12/30 11:28:02;;;;;;;;;1.00;1.00;;;;;10.68;81.53;99535.41;5039899;28;45475;-64
2022/12/30 11:30:42;;;;;;;;;2.00;2.00;;;;;10.73;81.50;99528.97;5041411;28;46330;-56
2022/12/30 11:33:19;;;;;;;;;0.67;0.67;;;;;10.78;82.10;99524.34;5047007;28;45489;-59
2022/12/30 11:35:49;;;;;;;;;2.00;2.00;;;;;10.74;81.45;99521.94;5037969;28;46230;-59
2022/12/30 11:38:34;;;;;;;;;0.33;0.33;;;;;10.84;81.19;99526.63;5053094;28;45411;-57
2022/12/30 11:41:18;;;;;;;;;0.00;0.00;;;;;10.88;82.73;99524.69;5053328;28;47621;-58
2022/12/30 11:43:47;;;;;;;;;0.00;0.00;;;;;10.90;81.88;99514.06;5055248;28;45560;-57
2022/12/30 11:46:16;;;;;;;;;1.00;1.00;;;;;10.90;82.85;99512.28;5055188;28;45495;-57
2022/12/30 11:49:05;;;;;;;;;1.00;1.00;;;;;10.92;82.58;99541.16;5055292;28;45431;-57
2022/12/30 11:51:34;;;;;;;;;4.00;4.00;;;;;10.96;82.70;99532.16;5054833;28;45541;-57
2022/12/30 11:54:12;;;;;;;;;1.00;1.00;;;;;10.95;82.74;99530.47;5055025;28;45485;-57
2022/12/30 11:56:58;;;;;;;;;0.33;0.33;;;;;10.95;82.47;99523.41;5055255;28;45510;-57
2022/12/30 11:59:27;;;;;;;;;3.00;3.00;;;;;11.03;82.72;99517.75;5054730;28;45425;-57
2022/12/30 12:01:58;;;;;;;;;1.00;0.00;;;;;11.05;82.58;99518.50;5054666;28;47560;-57
2022/12/30 12:04:39;;;;;;;;;0.67;0.33;;;;;11.04;83.37;99529.94;5053791;28;45618;-58
2022/12/30 12:07:16;;;;;;;;;1.67;0.67;;;;;11.12;82.37;99508.50;5053529;28;45569;-59
2022/12/30 12:10:03;;;;;;;;;0.67;0.67;;;;;11.13;82.70;99515.47;5054629;28;45660;-58
2022/12/30 12:12:36;;;;;;;;;1.00;0.00;;;;;11.16;83.11;99502.13;5038146;28;48205;-57
2022/12/30 12:15:12;;;;;;;;;4.00;4.00;;;;;11.20;82.46;99509.78;5038635;28;45431;-57
2022/12/30 12:17:52;;;;;;;;;1.00;1.00;;;;;11.24;82.37;99507.81;5053188;28;45490;-58
2022/12/30 12:20:40;;;;;;;;;1.33;0.00;;;;;11.26;82.92;99505.97;5053051;28;45600;-57
2022/12/30 12:23:16;;;;;;;;;1.00;1.00;;;;;11.28;83.83;99501.44;5041500;28;45520;-57
2022/12/30 12:26:07;;;;;;;;;0.33;0.33;;;;;11.34;83.23;99505.50;5053036;28;45501;-57
2022/12/30 12:28:36;;;;;;;;;2.00;0.00;;;;;11.34;83.23;99497.59;5054516;28;45867;-58
2022/12/30 12:31:23;;;;;;;;;0.00;0.00;;;;;11.40;82.91;99507.81;5054455;28;45591;-58
2022/12/30 12:33:56;;;;;;;;;0.67;0.67;;;;;11.45;83.62;99492.63;5054381;28;45526;-58
2022/12/30 12:36:25;;;;;;;;;0.00;0.00;;;;;11.46;83.28;99494.28;5038908;28;45479;-58
2022/12/30 12:39:10;;;;;;;;;1.00;1.00;;;;;11.52;83.21;99498.38;5054565;28;45407;-58
2022/12/30 12:42:02;;;;;;;;;0.00;0.00;;;;;11.52;83.86;99499.22;5052664;28;45568;-58
2022/12/30 12:44:36;;;;;;;;;0.00;0.00;;;;;11.55;84.29;99485.88;5054134;28;45472;-58
2022/12/30 12:47:22;;;;;;;;;0.00;0.00;;;;;11.59;84.21;99490.03;5054244;28;45422;-58